sensor_id;sensor_type;location;lat;lon;timestamp;P1;durP1;ratioP1;P2;durP2;ratioP2
59016;SDS011;44800;55.600;38.134;2023-03-12T00:00:49;0.52;;;0.52;;
59016;SDS011;44800;55.600;38.134;2023-03-12T00:03:18;2.13;;;1.10;;
59016;SDS011;44800;55.600;38.134;2023-03-12T00:05:46;1.35;;;0.80;;
59016;SDS011;44800;55.600;38.134;2023-03-12T00:08:15;0.57;;;0.57;;
59016;SDS011;44800;55.600;38.134;2023-03-12T00:10:43;1.42;;;0.82;;
59016;SDS011;44800;55.600;38.134;2023-03-12T00:13:13;2.05;;;1.05;;
59016;SDS011;44800;55.600;38.134;2023-03-12T00:15:41;0.73;;;0.65;;
59016;SDS011;44800;55.600;38.134;2023-03-12T00:18:11;0.80;;;0.80;;
59016;SDS011;44800;55.600;38.134;2023-03-12T00:20:40;1.27;;;1.00;;
59016;SDS011;44800;55.600;38.134;2023-03-12T00:23:08;0.60;;;0.60;;
59016;SDS011;44800;55.600;38.134;2023-03-12T00:25:38;0.70;;;0.70;;
59016;SDS011;44800;55.600;38.134;2023-03-12T00:28:07;0.85;;;0.75;;
59016;SDS011;44800;55.600;38.134;2023-03-12T00:30:35;0.47;;;0.47;;
59016;SDS011;44800;55.600;38.134;2023-03-12T00:33:03;0.52;;;0.50;;
59016;SDS011;44800;55.600;38.134;2023-03-12T00:35:33;0.82;;;0.77;;
59016;SDS011;44800;55.600;38.134;2023-03-12T00:38:01;0.50;;;0.50;;
59016;SDS011;44800;55.600;38.134;2023-03-12T00:40:30;1.35;;;0.80;;
59016;SDS011;44800;55.600;38.134;2023-03-12T00:42:58;0.95;;;0.70;;
59016;SDS011;44800;55.600;38.134;2023-03-12T00:45:27;1.13;;;1.02;;
59016;SDS011;44800;55.600;38.134;2023-03-12T00:47:55;0.75;;;0.70;;
59016;SDS011;44800;55.600;38.134;2023-03-12T00:50:23;0.60;;;0.60;;
59016;SDS011;44800;55.600;38.134;2023-03-12T00:52:53;0.50;;;0.50;;
59016;SDS011;44800;55.600;38.134;2023-03-12T00:55:21;0.80;;;0.80;;
59016;SDS011;44800;55.600;38.134;2023-03-12T00:57:50;1.00;;;1.00;;
59016;SDS011;44800;55.600;38.134;2023-03-12T01:00:19;0.80;;;0.70;;
59016;SDS011;44800;55.600;38.134;2023-03-12T01:02:48;0.63;;;0.50;;
59016;SDS011;44800;55.600;38.134;2023-03-12T01:05:16;1.30;;;1.10;;
59016;SDS011;44800;55.600;38.134;2023-03-12T01:07:44;1.02;;;0.77;;
59016;SDS011;44800;55.600;38.134;2023-03-12T01:10:17;1.15;;;0.80;;
59016;SDS011;44800;55.600;38.134;2023-03-12T01:12:46;1.25;;;0.77;;
59016;SDS011;44800;55.600;38.134;2023-03-12T01:15:15;0.88;;;0.60;;
59016;SDS011;44800;55.600;38.134;2023-03-12T01:17:44;1.10;;;1.02;;
59016;SDS011;44800;55.600;38.134;2023-03-12T01:20:13;0.30;;;0.30;;
59016;SDS011;44800;55.600;38.134;2023-03-12T01:22:42;0.90;;;0.90;;
59016;SDS011;44800;55.600;38.134;2023-03-12T01:25:10;0.40;;;0.40;;
59016;SDS011;44800;55.600;38.134;2023-03-12T01:27:40;0.43;;;0.43;;
59016;SDS011;44800;55.600;38.134;2023-03-12T01:30:12;0.80;;;0.75;;
59016;SDS011;44800;55.600;38.134;2023-03-12T01:32:43;0.88;;;0.75;;
59016;SDS011;44800;55.600;38.134;2023-03-12T01:35:11;1.05;;;0.80;;
59016;SDS011;44800;55.600;38.134;2023-03-12T01:37:40;1.20;;;1.08;;
59016;SDS011;44800;55.600;38.134;2023-03-12T01:40:10;0.73;;;0.73;;
59016;SDS011;44800;55.600;38.134;2023-03-12T01:42:44;0.73;;;0.73;;
59016;SDS011;44800;55.600;38.134;2023-03-12T01:48:26;0.43;;;0.43;;
59016;SDS011;44800;55.600;38.134;2023-03-12T01:50:55;0.63;;;0.63;;
59016;SDS011;44800;55.600;38.134;2023-03-12T01:53:23;1.13;;;1.02;;
59016;SDS011;44800;55.600;38.134;2023-03-12T01:55:52;1.38;;;0.98;;
59016;SDS011;44800;55.600;38.134;2023-03-12T01:58:21;1.00;;;0.95;;
59016;SDS011;44800;55.600;38.134;2023-03-12T02:00:50;0.70;;;0.70;;
59016;SDS011;44800;55.600;38.134;2023-03-12T02:03:18;0.88;;;0.80;;
59016;SDS011;44800;55.600;38.134;2023-03-12T02:05:47;0.35;;;0.35;;
59016;SDS011;44800;55.600;38.134;2023-03-12T02:08:18;1.00;;;0.90;;
59016;SDS011;44800;55.600;38.134;2023-03-12T02:10:47;0.68;;;0.68;;
59016;SDS011;44800;55.600;38.134;2023-03-12T02:13:15;0.57;;;0.47;;
59016;SDS011;44800;55.600;38.134;2023-03-12T02:15:45;1.35;;;0.57;;
59016;SDS011;44800;55.600;38.134;2023-03-12T02:18:15;0.75;;;0.70;;
59016;SDS011;44800;55.600;38.134;2023-03-12T02:20:46;0.82;;;0.70;;
59016;SDS011;44800;55.600;38.134;2023-03-12T02:23:20;1.42;;;1.02;;
59016;SDS011;44800;55.600;38.134;2023-03-12T02:25:54;0.70;;;0.70;;
59016;SDS011;44800;55.600;38.134;2023-03-12T02:28:25;0.90;;;0.90;;
59016;SDS011;44800;55.600;38.134;2023-03-12T02:30:56;0.80;;;0.80;;
59016;SDS011;44800;55.600;38.134;2023-03-12T02:33:27;0.70;;;0.70;;
59016;SDS011;44800;55.600;38.134;2023-03-12T02:35:55;0.93;;;0.80;;
59016;SDS011;44800;55.600;38.134;2023-03-12T02:38:30;0.98;;;0.95;;
59016;SDS011;44800;55.600;38.134;2023-03-12T02:41:04;1.10;;;0.90;;
59016;SDS011;44800;55.600;38.134;2023-03-12T02:43:36;1.25;;;0.60;;
59016;SDS011;44800;55.600;38.134;2023-03-12T02:46:05;0.73;;;0.73;;
59016;SDS011;44800;55.600;38.134;2023-03-12T02:48:35;1.13;;;1.02;;
59016;SDS011;44800;55.600;38.134;2023-03-12T02:51:03;0.73;;;0.73;;
59016;SDS011;44800;55.600;38.134;2023-03-12T02:53:32;1.85;;;0.80;;
59016;SDS011;44800;55.600;38.134;2023-03-12T02:56:01;0.82;;;0.80;;
59016;SDS011;44800;55.600;38.134;2023-03-12T02:58:30;1.20;;;1.10;;
59016;SDS011;44800;55.600;38.134;2023-03-12T03:00:59;1.10;;;0.88;;
59016;SDS011;44800;55.600;38.134;2023-03-12T03:03:27;0.73;;;0.73;;
59016;SDS011;44800;55.600;38.134;2023-03-12T03:05:56;0.88;;;0.88;;
59016;SDS011;44800;55.600;38.134;2023-03-12T03:08:24;0.52;;;0.50;;
59016;SDS011;44800;55.600;38.134;2023-03-12T03:10:53;0.55;;;0.50;;
59016;SDS011;44800;55.600;38.134;2023-03-12T03:13:21;0.70;;;0.63;;
59016;SDS011;44800;55.600;38.134;2023-03-12T03:15:51;1.13;;;1.02;;
59016;SDS011;44800;55.600;38.134;2023-03-12T03:18:19;0.55;;;0.55;;
59016;SDS011;44800;55.600;38.134;2023-03-12T03:20:53;1.20;;;1.10;;
59016;SDS011;44800;55.600;38.134;2023-03-12T03:23:22;0.70;;;0.70;;
59016;SDS011;44800;55.600;38.134;2023-03-12T03:25:50;1.10;;;1.00;;
59016;SDS011;44800;55.600;38.134;2023-03-12T03:28:19;1.50;;;1.20;;
59016;SDS011;44800;55.600;38.134;2023-03-12T03:30:48;0.88;;;0.88;;
59016;SDS011;44800;55.600;38.134;2023-03-12T03:33:20;1.05;;;0.95;;
59016;SDS011;44800;55.600;38.134;2023-03-12T03:35:49;1.02;;;1.00;;
59016;SDS011;44800;55.600;38.134;2023-03-12T03:38:17;1.58;;;1.30;;
59016;SDS011;44800;55.600;38.134;2023-03-12T03:40:45;1.45;;;1.30;;
59016;SDS011;44800;55.600;38.134;2023-03-12T03:43:14;3.97;;;1.52;;
59016;SDS011;44800;55.600;38.134;2023-03-12T03:45:42;1.25;;;1.15;;
59016;SDS011;44800;55.600;38.134;2023-03-12T03:48:11;1.98;;;1.42;;
59016;SDS011;44800;55.600;38.134;2023-03-12T03:50:41;3.05;;;1.80;;
59016;SDS011;44800;55.600;38.134;2023-03-12T03:53:09;1.40;;;1.10;;
59016;SDS011;44800;55.600;38.134;2023-03-12T03:55:40;1.95;;;1.75;;
59016;SDS011;44800;55.600;38.134;2023-03-12T03:58:08;2.05;;;1.85;;
59016;SDS011;44800;55.600;38.134;2023-03-12T04:00:36;2.13;;;1.92;;
59016;SDS011;44800;55.600;38.134;2023-03-12T04:04:04;2.25;;;1.92;;
59016;SDS011;44800;55.600;38.134;2023-03-12T04:06:34;2.40;;;2.00;;
59016;SDS011;44800;55.600;38.134;2023-03-12T04:09:02;2.33;;;1.73;;
59016;SDS011;44800;55.600;38.134;2023-03-12T04:11:31;2.28;;;1.73;;
59016;SDS011;44800;55.600;38.134;2023-03-12T04:13:59;1.20;;;1.15;;
59016;SDS011;44800;55.600;38.134;2023-03-12T04:16:27;3.22;;;2.10;;
59016;SDS011;44800;55.600;38.134;2023-03-12T04:18:56;2.70;;;2.13;;
59016;SDS011;44800;55.600;38.134;2023-03-12T04:21:24;3.47;;;1.92;;
59016;SDS011;44800;55.600;38.134;2023-03-12T04:23:54;0.98;;;0.93;;
59016;SDS011;44800;55.600;38.134;2023-03-12T04:26:22;3.17;;;2.50;;
59016;SDS011;44800;55.600;38.134;2023-03-12T04:28:51;2.38;;;2.00;;
59016;SDS011;44800;55.600;38.134;2023-03-12T04:31:19;2.63;;;2.00;;
59016;SDS011;44800;55.600;38.134;2023-03-12T04:33:48;2.88;;;2.08;;
59016;SDS011;44800;55.600;38.134;2023-03-12T04:36:16;3.58;;;2.97;;
59016;SDS011;44800;55.600;38.134;2023-03-12T04:38:45;1.98;;;1.77;;
59016;SDS011;44800;55.600;38.134;2023-03-12T04:41:15;3.90;;;2.42;;
59016;SDS011;44800;55.600;38.134;2023-03-12T04:43:44;2.75;;;1.83;;
59016;SDS011;44800;55.600;38.134;2023-03-12T04:46:12;2.60;;;2.28;;
59016;SDS011;44800;55.600;38.134;2023-03-12T04:48:41;3.33;;;3.03;;
59016;SDS011;44800;55.600;38.134;2023-03-12T04:51:09;2.83;;;1.92;;
59016;SDS011;44800;55.600;38.134;2023-03-12T04:53:37;4.32;;;3.40;;
59016;SDS011;44800;55.600;38.134;2023-03-12T04:56:06;5.38;;;3.70;;
59016;SDS011;44800;55.600;38.134;2023-03-12T04:58:37;6.07;;;2.97;;
59016;SDS011;44800;55.600;38.134;2023-03-12T05:01:05;3.33;;;2.22;;
59016;SDS011;44800;55.600;38.134;2023-03-12T05:03:33;4.10;;;2.72;;
59016;SDS011;44800;55.600;38.134;2023-03-12T05:06:02;4.65;;;3.28;;
59016;SDS011;44800;55.600;38.134;2023-03-12T05:08:31;3.92;;;2.75;;
59016;SDS011;44800;55.600;38.134;2023-03-12T05:10:59;6.40;;;3.40;;
59016;SDS011;44800;55.600;38.134;2023-03-12T05:13:28;5.55;;;3.50;;
59016;SDS011;44800;55.600;38.134;2023-03-12T05:15:58;3.72;;;2.83;;
59016;SDS011;44800;55.600;38.134;2023-03-12T05:18:26;5.22;;;4.03;;
59016;SDS011;44800;55.600;38.134;2023-03-12T05:20:58;3.50;;;2.65;;
59016;SDS011;44800;55.600;38.134;2023-03-12T05:23:27;6.40;;;3.33;;
59016;SDS011;44800;55.600;38.134;2023-03-12T05:25:55;3.75;;;3.05;;
59016;SDS011;44800;55.600;38.134;2023-03-12T05:28:24;6.07;;;3.17;;
59016;SDS011;44800;55.600;38.134;2023-03-12T05:30:54;6.97;;;3.95;;
59016;SDS011;44800;55.600;38.134;2023-03-12T05:33:27;5.38;;;3.47;;
59016;SDS011;44800;55.600;38.134;2023-03-12T05:35:56;8.57;;;4.57;;
59016;SDS011;44800;55.600;38.134;2023-03-12T05:38:24;8.48;;;5.30;;
59016;SDS011;44800;55.600;38.134;2023-03-12T05:40:54;9.40;;;5.20;;
59016;SDS011;44800;55.600;38.134;2023-03-12T05:43:24;9.20;;;5.32;;
59016;SDS011;44800;55.600;38.134;2023-03-12T05:45:57;9.23;;;5.45;;
59016;SDS011;44800;55.600;38.134;2023-03-12T05:48:27;9.60;;;5.40;;
59016;SDS011;44800;55.600;38.134;2023-03-12T05:50:56;11.10;;;6.05;;
59016;SDS011;44800;55.600;38.134;2023-03-12T05:53:24;11.95;;;7.05;;
59016;SDS011;44800;55.600;38.134;2023-03-12T05:55:53;11.38;;;6.35;;
59016;SDS011;44800;55.600;38.134;2023-03-12T05:58:21;15.90;;;7.35;;
59016;SDS011;44800;55.600;38.134;2023-03-12T06:00:49;10.32;;;5.10;;
59016;SDS011;44800;55.600;38.134;2023-03-12T06:03:18;11.10;;;6.20;;
59016;SDS011;44800;55.600;38.134;2023-03-12T06:05:48;17.13;;;7.47;;
59016;SDS011;44800;55.600;38.134;2023-03-12T06:08:17;15.82;;;6.93;;
59016;SDS011;44800;55.600;38.134;2023-03-12T06:10:46;13.68;;;5.72;;
59016;SDS011;44800;55.600;38.134;2023-03-12T06:13:14;17.65;;;7.55;;
59016;SDS011;44800;55.600;38.134;2023-03-12T06:15:43;16.33;;;7.80;;
59016;SDS011;44800;55.600;38.134;2023-03-12T06:18:11;13.65;;;7.38;;
59016;SDS011;44800;55.600;38.134;2023-03-12T06:20:39;18.02;;;8.07;;
59016;SDS011;44800;55.600;38.134;2023-03-12T06:23:09;16.90;;;8.35;;
59016;SDS011;44800;55.600;38.134;2023-03-12T06:25:37;23.40;;;9.52;;
59016;SDS011;44800;55.600;38.134;2023-03-12T06:28:05;14.60;;;7.40;;
59016;SDS011;44800;55.600;38.134;2023-03-12T06:30:34;21.73;;;10.48;;
59016;SDS011;44800;55.600;38.134;2023-03-12T06:33:02;23.60;;;11.35;;
59016;SDS011;44800;55.600;38.134;2023-03-12T06:35:34;25.42;;;10.02;;
59016;SDS011;44800;55.600;38.134;2023-03-12T06:38:02;29.67;;;10.05;;
59016;SDS011;44800;55.600;38.134;2023-03-12T06:40:32;24.77;;;11.30;;
59016;SDS011;44800;55.600;38.134;2023-03-12T06:43:00;24.48;;;9.48;;
59016;SDS011;44800;55.600;38.134;2023-03-12T06:45:29;18.35;;;9.60;;
59016;SDS011;44800;55.600;38.134;2023-03-12T06:47:57;32.00;;;11.38;;
59016;SDS011;44800;55.600;38.134;2023-03-12T06:50:26;12.73;;;7.30;;
59016;SDS011;44800;55.600;38.134;2023-03-12T06:52:54;22.33;;;10.38;;
59016;SDS011;44800;55.600;38.134;2023-03-12T06:55:22;23.10;;;10.35;;
59016;SDS011;44800;55.600;38.134;2023-03-12T06:57:52;26.60;;;11.65;;
59016;SDS011;44800;55.600;38.134;2023-03-12T07:00:21;22.92;;;10.65;;
59016;SDS011;44800;55.600;38.134;2023-03-12T07:02:49;26.65;;;12.23;;
59016;SDS011;44800;55.600;38.134;2023-03-12T07:05:18;19.55;;;9.73;;
59016;SDS011;44800;55.600;38.134;2023-03-12T07:07:46;27.38;;;11.10;;
59016;SDS011;44800;55.600;38.134;2023-03-12T07:10:15;25.33;;;10.48;;
59016;SDS011;44800;55.600;38.134;2023-03-12T07:12:43;34.22;;;15.30;;
59016;SDS011;44800;55.600;38.134;2023-03-12T07:15:14;31.63;;;11.55;;
59016;SDS011;44800;55.600;38.134;2023-03-12T07:17:43;34.63;;;13.85;;
59016;SDS011;44800;55.600;38.134;2023-03-12T07:20:11;36.10;;;14.00;;
59016;SDS011;44800;55.600;38.134;2023-03-12T07:22:40;41.75;;;15.32;;
59016;SDS011;44800;55.600;38.134;2023-03-12T07:25:08;40.22;;;16.45;;
59016;SDS011;44800;55.600;38.134;2023-03-12T07:27:37;34.78;;;13.90;;
59016;SDS011;44800;55.600;38.134;2023-03-12T07:30:06;55.78;;;19.35;;
59016;SDS011;44800;55.600;38.134;2023-03-12T07:32:37;47.95;;;18.42;;
59016;SDS011;44800;55.600;38.134;2023-03-12T07:35:05;61.03;;;19.38;;
59016;SDS011;44800;55.600;38.134;2023-03-12T07:37:34;49.80;;;19.17;;
59016;SDS011;44800;55.600;38.134;2023-03-12T07:40:03;67.13;;;23.20;;
59016;SDS011;44800;55.600;38.134;2023-03-12T07:42:33;54.25;;;18.90;;
59016;SDS011;44800;55.600;38.134;2023-03-12T07:45:01;56.38;;;16.58;;
59016;SDS011;44800;55.600;38.134;2023-03-12T07:47:30;64.20;;;17.98;;
59016;SDS011;44800;55.600;38.134;2023-03-12T07:50:00;72.50;;;23.42;;
59016;SDS011;44800;55.600;38.134;2023-03-12T07:52:29;52.58;;;19.98;;
59016;SDS011;44800;55.600;38.134;2023-03-12T07:54:58;66.45;;;19.10;;
59016;SDS011;44800;55.600;38.134;2023-03-12T07:57:26;38.53;;;15.15;;
59016;SDS011;44800;55.600;38.134;2023-03-12T07:59:54;53.53;;;19.58;;
59016;SDS011;44800;55.600;38.134;2023-03-12T08:02:23;52.65;;;17.95;;
59016;SDS011;44800;55.600;38.134;2023-03-12T08:04:51;62.53;;;19.23;;
59016;SDS011;44800;55.600;38.134;2023-03-12T08:07:21;50.17;;;19.25;;
59016;SDS011;44800;55.600;38.134;2023-03-12T08:09:49;38.70;;;12.82;;
59016;SDS011;44800;55.600;38.134;2023-03-12T08:12:18;41.90;;;13.20;;
59016;SDS011;44800;55.600;38.134;2023-03-12T08:14:47;37.28;;;14.65;;
59016;SDS011;44800;55.600;38.134;2023-03-12T08:17:15;38.92;;;14.80;;
59016;SDS011;44800;55.600;38.134;2023-03-12T08:19:43;30.02;;;10.45;;
59016;SDS011;44800;55.600;38.134;2023-03-12T08:22:12;37.60;;;14.25;;
59016;SDS011;44800;55.600;38.134;2023-03-12T08:24:42;36.88;;;15.15;;
59016;SDS011;44800;55.600;38.134;2023-03-12T08:27:11;31.80;;;13.25;;
59016;SDS011;44800;55.600;38.134;2023-03-12T08:29:39;29.30;;;12.55;;
59016;SDS011;44800;55.600;38.134;2023-03-12T08:32:08;29.40;;;11.32;;
59016;SDS011;44800;55.600;38.134;2023-03-12T08:34:37;39.22;;;13.73;;
59016;SDS011;44800;55.600;38.134;2023-03-12T08:37:05;31.45;;;11.75;;
59016;SDS011;44800;55.600;38.134;2023-03-12T08:39:34;26.35;;;11.57;;
59016;SDS011;44800;55.600;38.134;2023-03-12T08:42:03;25.00;;;12.05;;
59016;SDS011;44800;55.600;38.134;2023-03-12T08:44:33;26.25;;;10.98;;
59016;SDS011;44800;55.600;38.134;2023-03-12T08:47:01;31.58;;;10.90;;
59016;SDS011;44800;55.600;38.134;2023-03-12T08:49:30;28.05;;;12.38;;
59016;SDS011;44800;55.600;38.134;2023-03-12T08:51:58;26.35;;;11.07;;
59016;SDS011;44800;55.600;38.134;2023-03-12T08:54:27;19.38;;;8.60;;
59016;SDS011;44800;55.600;38.134;2023-03-12T08:56:56;21.08;;;9.90;;
59016;SDS011;44800;55.600;38.134;2023-03-12T08:59:25;20.70;;;8.93;;
59016;SDS011;44800;55.600;38.134;2023-03-12T09:01:54;19.75;;;9.40;;
59016;SDS011;44800;55.600;38.134;2023-03-12T09:04:22;24.13;;;10.98;;
59016;SDS011;44800;55.600;38.134;2023-03-12T09:06:51;20.48;;;10.02;;
59016;SDS011;44800;55.600;38.134;2023-03-12T09:09:19;19.77;;;9.70;;
59016;SDS011;44800;55.600;38.134;2023-03-12T09:11:47;19.33;;;9.45;;
59016;SDS011;44800;55.600;38.134;2023-03-12T09:14:15;13.05;;;5.95;;
59016;SDS011;44800;55.600;38.134;2023-03-12T09:17:05;18.45;;;8.70;;
59016;SDS011;44800;55.600;38.134;2023-03-12T09:19:34;15.43;;;7.65;;
59016;SDS011;44800;55.600;38.134;2023-03-12T09:22:02;12.25;;;8.13;;
59016;SDS011;44800;55.600;38.134;2023-03-12T09:24:31;19.60;;;9.23;;
59016;SDS011;44800;55.600;38.134;2023-03-12T09:26:59;8.27;;;5.45;;
59016;SDS011;44800;55.600;38.134;2023-03-12T09:29:29;17.77;;;8.63;;
59016;SDS011;44800;55.600;38.134;2023-03-12T09:31:58;12.13;;;7.22;;
59016;SDS011;44800;55.600;38.134;2023-03-12T09:34:28;14.52;;;9.00;;
59016;SDS011;44800;55.600;38.134;2023-03-12T09:36:56;14.38;;;8.57;;
59016;SDS011;44800;55.600;38.134;2023-03-12T09:39:24;11.30;;;6.35;;
59016;SDS011;44800;55.600;38.134;2023-03-12T09:41:53;9.40;;;5.43;;
59016;SDS011;44800;55.600;38.134;2023-03-12T09:44:22;12.00;;;7.43;;
59016;SDS011;44800;55.600;38.134;2023-03-12T09:46:57;12.20;;;7.40;;
59016;SDS011;44800;55.600;38.134;2023-03-12T09:49:31;8.85;;;5.95;;
59016;SDS011;44800;55.600;38.134;2023-03-12T09:52:02;15.30;;;7.47;;
59016;SDS011;44800;55.600;38.134;2023-03-12T09:54:36;10.90;;;6.80;;
59016;SDS011;44800;55.600;38.134;2023-03-12T09:57:09;12.88;;;7.72;;
59016;SDS011;44800;55.600;38.134;2023-03-12T09:59:39;10.68;;;5.80;;
59016;SDS011;44800;55.600;38.134;2023-03-12T10:02:14;10.60;;;6.97;;
59016;SDS011;44800;55.600;38.134;2023-03-12T10:04:53;9.52;;;5.68;;
59016;SDS011;44800;55.600;38.134;2023-03-12T10:10:02;8.27;;;5.30;;
59016;SDS011;44800;55.600;38.134;2023-03-12T10:12:38;10.52;;;5.47;;
59016;SDS011;44800;55.600;38.134;2023-03-12T10:15:14;6.32;;;4.40;;
59016;SDS011;44800;55.600;38.134;2023-03-12T10:17:52;12.75;;;6.93;;
59016;SDS011;44800;55.600;38.134;2023-03-12T10:20:31;9.35;;;5.32;;
59016;SDS011;44800;55.600;38.134;2023-03-12T10:23:06;7.22;;;4.03;;
59016;SDS011;44800;55.600;38.134;2023-03-12T10:25:38;9.88;;;6.28;;
59016;SDS011;44800;55.600;38.134;2023-03-12T10:28:13;9.82;;;4.90;;
59016;SDS011;44800;55.600;38.134;2023-03-12T10:30:45;4.97;;;3.20;;
59016;SDS011;44800;55.600;38.134;2023-03-12T10:33:16;9.65;;;5.25;;
59016;SDS011;44800;55.600;38.134;2023-03-12T10:35:47;8.80;;;5.72;;
59016;SDS011;44800;55.600;38.134;2023-03-12T10:38:18;9.25;;;5.30;;
59016;SDS011;44800;55.600;38.134;2023-03-12T10:40:52;7.72;;;5.18;;
59016;SDS011;44800;55.600;38.134;2023-03-12T10:43:20;7.18;;;4.25;;
59016;SDS011;44800;55.600;38.134;2023-03-12T10:45:51;6.13;;;4.05;;
59016;SDS011;44800;55.600;38.134;2023-03-12T10:48:24;9.77;;;4.88;;
59016;SDS011;44800;55.600;38.134;2023-03-12T10:51:00;6.25;;;4.40;;
59016;SDS011;44800;55.600;38.134;2023-03-12T10:53:31;4.53;;;2.85;;
59016;SDS011;44800;55.600;38.134;2023-03-12T10:56:03;7.80;;;4.55;;
59016;SDS011;44800;55.600;38.134;2023-03-12T10:58:34;8.93;;;4.75;;
59016;SDS011;44800;55.600;38.134;2023-03-12T11:01:05;7.05;;;4.53;;
59016;SDS011;44800;55.600;38.134;2023-03-12T11:03:35;6.97;;;4.35;;
59016;SDS011;44800;55.600;38.134;2023-03-12T11:06:06;6.22;;;4.47;;
59016;SDS011;44800;55.600;38.134;2023-03-12T11:08:36;5.40;;;3.85;;
59016;SDS011;44800;55.600;38.134;2023-03-12T11:11:05;8.90;;;4.50;;
59016;SDS011;44800;55.600;38.134;2023-03-12T11:13:34;9.27;;;5.20;;
59016;SDS011;44800;55.600;38.134;2023-03-12T11:16:22;5.72;;;4.10;;
59016;SDS011;44800;55.600;38.134;2023-03-12T11:18:55;5.07;;;3.50;;
59016;SDS011;44800;55.600;38.134;2023-03-12T11:21:27;7.90;;;4.20;;
59016;SDS011;44800;55.600;38.134;2023-03-12T11:24:04;8.63;;;5.28;;
59016;SDS011;44800;55.600;38.134;2023-03-12T11:26:37;5.75;;;3.78;;
59016;SDS011;44800;55.600;38.134;2023-03-12T11:29:10;8.85;;;4.43;;
59016;SDS011;44800;55.600;38.134;2023-03-12T11:31:47;8.20;;;4.95;;
59016;SDS011;44800;55.600;38.134;2023-03-12T11:34:20;5.50;;;3.58;;
59016;SDS011;44800;55.600;38.134;2023-03-12T11:36:53;5.78;;;3.75;;
59016;SDS011;44800;55.600;38.134;2023-03-12T11:39:28;4.40;;;3.13;;
59016;SDS011;44800;55.600;38.134;2023-03-12T11:42:05;2.67;;;2.42;;
59016;SDS011;44800;55.600;38.134;2023-03-12T11:44:42;5.90;;;3.28;;
59016;SDS011;44800;55.600;38.134;2023-03-12T11:47:23;6.65;;;4.65;;
59016;SDS011;44800;55.600;38.134;2023-03-12T11:50:14;4.15;;;3.35;;
59016;SDS011;44800;55.600;38.134;2023-03-12T11:52:59;3.55;;;2.47;;
59016;SDS011;44800;55.600;38.134;2023-03-12T11:55:40;5.05;;;3.42;;
59016;SDS011;44800;55.600;38.134;2023-03-12T11:58:19;4.85;;;3.08;;
59016;SDS011;44800;55.600;38.134;2023-03-12T12:00:55;5.75;;;3.55;;
59016;SDS011;44800;55.600;38.134;2023-03-12T12:03:38;5.18;;;3.13;;
59016;SDS011;44800;55.600;38.134;2023-03-12T12:06:16;3.13;;;2.67;;
59016;SDS011;44800;55.600;38.134;2023-03-12T12:08:57;5.30;;;3.55;;
59016;SDS011;44800;55.600;38.134;2023-03-12T12:11:34;3.10;;;2.55;;
59016;SDS011;44800;55.600;38.134;2023-03-12T12:14:13;4.47;;;3.22;;
59016;SDS011;44800;55.600;38.134;2023-03-12T12:16:57;2.92;;;2.20;;
59016;SDS011;44800;55.600;38.134;2023-03-12T12:19:35;5.72;;;3.25;;
59016;SDS011;44800;55.600;38.134;2023-03-12T12:22:13;5.47;;;3.65;;
59016;SDS011;44800;55.600;38.134;2023-03-12T12:24:59;8.20;;;3.92;;
59016;SDS011;44800;55.600;38.134;2023-03-12T12:27:41;6.63;;;3.10;;
59016;SDS011;44800;55.600;38.134;2023-03-12T12:30:14;5.50;;;4.13;;
59016;SDS011;44800;55.600;38.134;2023-03-12T12:35:23;5.80;;;3.95;;
59016;SDS011;44800;55.600;38.134;2023-03-12T12:37:55;6.50;;;4.18;;
59016;SDS011;44800;55.600;38.134;2023-03-12T12:40:28;5.07;;;3.88;;
59016;SDS011;44800;55.600;38.134;2023-03-12T12:43:00;5.22;;;3.65;;
59016;SDS011;44800;55.600;38.134;2023-03-12T12:45:33;5.82;;;3.45;;
59016;SDS011;44800;55.600;38.134;2023-03-12T12:48:11;3.33;;;2.30;;
59016;SDS011;44800;55.600;38.134;2023-03-12T12:50:41;4.72;;;2.92;;
59016;SDS011;44800;55.600;38.134;2023-03-12T12:53:13;6.95;;;4.28;;
59016;SDS011;44800;55.600;38.134;2023-03-12T12:55:50;5.05;;;3.33;;
59016;SDS011;44800;55.600;38.134;2023-03-12T12:58:25;3.58;;;2.15;;
59016;SDS011;44800;55.600;38.134;2023-03-12T13:01:08;5.65;;;2.38;;
59016;SDS011;44800;55.600;38.134;2023-03-12T13:03:37;3.10;;;1.63;;
59016;SDS011;44800;55.600;38.134;2023-03-12T13:06:05;3.70;;;2.20;;
59016;SDS011;44800;55.600;38.134;2023-03-12T13:11:37;3.80;;;1.55;;
59016;SDS011;44800;55.600;38.134;2023-03-12T13:17:06;1.05;;;0.80;;
59016;SDS011;44800;55.600;38.134;2023-03-12T13:19:46;3.17;;;1.50;;
59016;SDS011;44800;55.600;38.134;2023-03-12T13:22:26;7.07;;;4.40;;
59016;SDS011;44800;55.600;38.134;2023-03-12T13:25:06;5.82;;;3.28;;
59016;SDS011;44800;55.600;38.134;2023-03-12T13:27:43;4.32;;;2.35;;
59016;SDS011;44800;55.600;38.134;2023-03-12T13:33:18;6.32;;;3.42;;
59016;SDS011;44800;55.600;38.134;2023-03-12T13:36:01;3.10;;;2.08;;
59016;SDS011;44800;55.600;38.134;2023-03-12T13:38:35;8.20;;;3.78;;
59016;SDS011;44800;55.600;38.134;2023-03-12T13:41:05;2.05;;;1.85;;
59016;SDS011;44800;55.600;38.134;2023-03-12T13:43:48;3.53;;;1.48;;
59016;SDS011;44800;55.600;38.134;2023-03-12T13:46:26;1.58;;;0.98;;
59016;SDS011;44800;55.600;38.134;2023-03-12T13:49:14;2.60;;;2.03;;
59016;SDS011;44800;55.600;38.134;2023-03-12T13:51:53;4.85;;;1.95;;
59016;SDS011;44800;55.600;38.134;2023-03-12T13:54:27;1.23;;;1.10;;
59016;SDS011;44800;55.600;38.134;2023-03-12T13:56:59;2.72;;;1.23;;
59016;SDS011;44800;55.600;38.134;2023-03-12T13:59:31;0.55;;;0.43;;
59016;SDS011;44800;55.600;38.134;2023-03-12T14:02:04;2.15;;;0.95;;
59016;SDS011;44800;55.600;38.134;2023-03-12T14:04:35;4.15;;;0.93;;
59016;SDS011;44800;55.600;38.134;2023-03-12T14:07:14;1.60;;;0.82;;
59016;SDS011;44800;55.600;38.134;2023-03-12T14:09:53;1.88;;;1.13;;
59016;SDS011;44800;55.600;38.134;2023-03-12T14:12:27;1.10;;;0.68;;
59016;SDS011;44800;55.600;38.134;2023-03-12T14:15:03;0.22;;;0.20;;
59016;SDS011;44800;55.600;38.134;2023-03-12T14:17:36;0.75;;;0.75;;
59016;SDS011;44800;55.600;38.134;2023-03-12T14:20:09;1.58;;;0.95;;
59016;SDS011;44800;55.600;38.134;2023-03-12T14:22:40;1.55;;;0.73;;
59016;SDS011;44800;55.600;38.134;2023-03-12T14:25:12;1.00;;;0.80;;
59016;SDS011;44800;55.600;38.134;2023-03-12T14:27:45;1.35;;;1.05;;
59016;SDS011;44800;55.600;38.134;2023-03-12T14:30:18;2.65;;;0.85;;
59016;SDS011;44800;55.600;38.134;2023-03-12T14:32:51;3.00;;;1.25;;
59016;SDS011;44800;55.600;38.134;2023-03-12T14:35:22;1.08;;;0.95;;
59016;SDS011;44800;55.600;38.134;2023-03-12T14:37:53;0.63;;;0.60;;
59016;SDS011;44800;55.600;38.134;2023-03-12T14:40:25;1.50;;;0.60;;
59016;SDS011;44800;55.600;38.134;2023-03-12T14:43:17;4.40;;;2.45;;
59016;SDS011;44800;55.600;38.134;2023-03-12T14:45:52;0.30;;;0.30;;
59016;SDS011;44800;55.600;38.134;2023-03-12T14:48:23;1.00;;;0.90;;
59016;SDS011;44800;55.600;38.134;2023-03-12T14:50:55;1.40;;;0.60;;
59016;SDS011;44800;55.600;38.134;2023-03-12T14:53:25;5.70;;;0.80;;
59016;SDS011;44800;55.600;38.134;2023-03-12T14:56:01;0.35;;;0.35;;
59016;SDS011;44800;55.600;38.134;2023-03-12T14:58:32;1.13;;;0.90;;
59016;SDS011;44800;55.600;38.134;2023-03-12T15:01:04;0.80;;;0.70;;
59016;SDS011;44800;55.600;38.134;2023-03-12T15:03:40;0.68;;;0.38;;
59016;SDS011;44800;55.600;38.134;2023-03-12T15:06:17;2.08;;;1.00;;
59016;SDS011;44800;55.600;38.134;2023-03-12T15:08:47;0.88;;;0.68;;